Sandy, OR

11:50 AM PST on January 21, 2017 (GMT -0800)
Sandy City Center | | Change Station

Elev 948 ft 45.40 °N, 122.27 °W | Updated 37 seconds ago

Rain
Rain
42.4 °F
Feels Like 42 °F
N
0.0
Wind Variable Wind from WSW

Today
High -- | Low -- °F
--% Chance of Precip.
Yesterday
High -- | Low -- °F
Precip. -- in
Pressure 29.40 in
Visibility 10.0 miles
Clouds Overcast 5000 ft
Windchill 42 °F
Dew Point 41 °F
Humidity 96%
Rainfall 0.04 in
Snow Depth Not available.
7:40 AM 5:00 PM
Waning Crescent, 32% visible
METAR KTTD 211853Z 09017KT 10SM -RA OVC050 06/02 A2940 RMK AO2 RAB49 SLP955 P0000 T00560022
Pressure 29.40 in
Visibility 10.0 miles
Clouds Overcast 5000 ft
Windchill 42 °F
Dew Point 41 °F
Humidity 96%
Rainfall 0.04 in
Snow Depth Not available.
7:40 AM 5:00 PM
Waning Crescent, 32% visible
METAR KTTD 211853Z 09017KT 10SM -RA OVC050 06/02 A2940 RMK AO2 RAB49 SLP955 P0000 T00560022

Get Your Daily Forecast Email!

Thanks for signing up!

Be on the lookout for a verification email in your inbox.

You'll start receiving the daily forecast at 8 AM.

×

10-Day Weather Forecast

Almanac

Astronomy

Jan. 21, 2017 Rise Set
Actual Time
Civil Twilight
Nautical Twilight
Astronomical Twilight
Moon
Length of Visible Light
Length of Day
Tomorrow will be .
, % of the Moon is Illuminated

Today's Extremes

State Highs State Lows

Community

WunderPhotos

Upload Photos

1,962,540 photos uploaded!

WunderBlog® & News

Nearby

Air Quality

  Air Quality AQ Index Pollutant
Not available.

Snow Depth

Station Depth Elevation

Earthquake Activity

City Distance Mag. Time & Date
Minimum magnitude displayed is 2.5.

Coastal Water Temperatures

Place Temperature

Stations

Nearby Weather Stations

Station Location Temp. Windchill Dew Point Humidity Wind Precip. Elev Updated Type
                   

Watches & Warnings

Small Craft for Rough Bar Advisory
Issued: 8:47 AM PST Jan. 21, 2017 – National Weather Service

... Small Craft Advisory for rough Columbia River bar now in
effect until 3 PM PST Sunday...

* in the Main Channel...

* general seas... 20 feet Saturday... subsiding to 16 feet late
Saturday night through Sunday.

* First Ebb... seas temporarily building to 24 ft with breakers
during the Ebb around 12 PM Saturday.

* Second Ebb... seas temporarily building to 21 feet with breakers
during the Ebb around 1215 am Sunday.

Precautionary/preparedness actions...

A Small Craft Advisory for rough bar means that wave conditions
are expected to be hazardous to small craft in or near Harbor
entrances.